Time;durP1;ratioP1;P1;durP2;ratioP2;P2;SDS_P1;SDS_P2;PMS_P1;PMS_P2;Temp;Humidity;BMP_temperature;BMP_pressure;BME280_temperature;BME280_humidity;BME280_pressure;Samples;Min_cycle;Max_cycle;Signal;HPM_P1;HPM_P2
2020/12/12 00:00:11;;;;;;;0.40;0.40;;;;;;;26.80;29.35;94422.66;4947466;28;20050;-36
2020/12/12 00:02:37;;;;;;;0.57;0.40;;;;;;;26.85;29.39;94435.38;4954255;28;20121;-38
2020/12/12 00:05:03;;;;;;;0.50;0.50;;;;;;;26.86;29.45;94431.75;4963075;28;20054;-41
2020/12/12 00:07:28;;;;;;;1.00;0.68;;;;;;;26.86;29.36;94427.31;4948167;28;20035;-39
2020/12/12 00:09:54;;;;;;;0.50;0.50;;;;;;;26.87;29.39;94418.47;4966894;28;20047;-37
2020/12/12 00:12:20;;;;;;;1.75;0.57;;;;;;;26.86;29.30;94422.06;4951422;28;20138;-40
2020/12/12 00:14:45;;;;;;;1.10;0.60;;;;;;;26.87;29.23;94417.66;4953799;28;20539;-37
2020/12/12 00:17:11;;;;;;;0.80;0.50;;;;;;;26.87;29.23;94418.47;4965509;28;20054;-39
2020/12/12 00:19:36;;;;;;;0.40;0.40;;;;;;;26.87;29.30;94413.22;4953232;28;20612;-40
2020/12/12 00:22:02;;;;;;;1.13;0.60;;;;;;;26.85;29.26;94412.53;4952416;28;20039;-39
2020/12/12 00:24:28;;;;;;;1.02;0.57;;;;;;;26.87;29.21;94407.13;4950129;28;20042;-40
2020/12/12 00:26:57;;;;;;;1.13;0.57;;;;;;;26.86;29.17;94411.56;4952802;28;20035;-41
2020/12/12 00:29:23;;;;;;;0.57;0.50;;;;;;;26.84;29.22;94407.41;4955535;28;20039;-40
2020/12/12 00:31:56;;;;;;;1.27;0.60;;;;;;;26.85;29.17;94409.91;4950217;28;20054;-43
2020/12/12 00:34:22;;;;;;;0.65;0.52;;;;;;;26.87;29.18;94413.22;4954283;28;20026;-41
2020/12/12 00:36:49;;;;;;;1.27;0.82;;;;;;;26.84;29.20;94397.75;4962620;28;20057;-39
2020/12/12 00:39:15;;;;;;;1.65;0.30;;;;;;;26.83;29.25;94398.72;4955279;28;20050;-42
2020/12/12 00:41:40;;;;;;;0.63;0.40;;;;;;;26.81;29.25;94403.28;4950232;28;20531;-38
2020/12/12 00:44:06;;;;;;;1.17;0.50;;;;;;;26.81;29.34;94403.28;4947067;28;20050;-39
2020/12/12 00:46:32;;;;;;;0.95;0.50;;;;;;;26.83;29.29;94397.88;4951219;28;20038;-36
2020/12/12 00:48:58;;;;;;;0.88;0.63;;;;;;;26.82;29.20;94410.22;4968591;28;20593;-43
2020/12/12 00:51:23;;;;;;;0.98;0.63;;;;;;;26.81;29.27;94405.91;4951632;28;20515;-36
2020/12/12 00:53:49;;;;;;;3.53;0.70;;;;;;;26.82;29.07;94404.97;4953238;28;20608;-38
2020/12/12 00:56:15;;;;;;;0.43;0.43;;;;;;;26.81;29.12;94411.16;4952110;28;20845;-40
2020/12/12 00:58:41;;;;;;;0.80;0.40;;;;;;;26.83;29.16;94411.03;4947738;28;20066;-43
2020/12/12 01:01:07;;;;;;;0.75;0.40;;;;;;;26.83;29.13;94398.72;4951295;28;20130;-41
2020/12/12 01:03:32;;;;;;;1.00;0.50;;;;;;;26.82;29.18;94406.75;4946569;28;20071;-38
2020/12/12 01:05:58;;;;;;;0.52;0.40;;;;;;;26.82;29.20;94404.13;4949664;28;20034;-40
2020/12/12 01:08:23;;;;;;;0.30;0.30;;;;;;;26.80;29.23;94406.06;4948439;28;20059;-38
2020/12/12 01:10:49;;;;;;;2.13;0.45;;;;;;;26.79;29.16;94400.00;4947222;28;20050;-38
2020/12/12 01:13:14;;;;;;;2.28;0.28;;;;;;;26.77;29.24;94409.81;4948969;28;20030;-39
2020/12/12 01:15:40;;;;;;;1.50;0.60;;;;;;;26.76;29.11;94404.72;4950006;28;20058;-39
2020/12/12 01:18:05;;;;;;;0.80;0.55;;;;;;;26.73;29.16;94411.06;4948409;28;20538;-39
2020/12/12 01:20:31;;;;;;;0.60;0.32;;;;;;;26.73;29.37;94406.66;4951423;28;20512;-40
2020/12/12 01:22:56;;;;;;;1.23;0.40;;;;;;;26.74;29.25;94407.50;4953748;28;20050;-39
2020/12/12 01:25:22;;;;;;;0.77;0.50;;;;;;;26.76;29.15;94409.97;4947709;28;20047;-40
2020/12/12 01:27:50;;;;;;;0.40;0.40;;;;;;;26.77;29.28;94417.69;4954552;28;20050;-35
2020/12/12 01:30:15;;;;;;;0.38;0.30;;;;;;;26.79;29.16;94415.75;4951283;28;20130;-40
2020/12/12 01:32:41;;;;;;;1.50;0.50;;;;;;;26.81;29.13;94413.78;4950550;28;20030;-38
2020/12/12 01:35:07;;;;;;;2.67;0.55;;;;;;;26.82;29.13;94420.72;4953524;28;20044;-39
2020/12/12 01:37:32;;;;;;;0.30;0.30;;;;;;;26.82;28.94;94420.72;4952415;28;20043;-40
2020/12/12 01:39:58;;;;;;;0.50;0.30;;;;;;;26.79;28.94;94426.25;4951378;28;20045;-40
2020/12/12 01:42:24;;;;;;;0.47;0.40;;;;;;;26.80;28.99;94433.16;4962928;28;20035;-40
2020/12/12 01:44:55;;;;;;;3.58;0.43;;;;;;;26.81;29.02;94420.88;4946150;28;20043;-38
2020/12/12 01:47:20;;;;;;;0.50;0.50;;;;;;;26.79;28.94;94415.75;4947929;28;20049;-41
2020/12/12 01:49:45;;;;;;;0.93;0.50;;;;;;;26.80;28.97;94427.91;4962520;28;20043;-45
2020/12/12 01:52:12;;;;;;;0.43;0.32;;;;;;;26.81;28.90;94436.63;4946253;28;21352;-40
2020/12/12 01:54:37;;;;;;;0.50;0.40;;;;;;;26.78;29.21;94424.63;4967553;28;20054;-38
2020/12/12 01:57:03;;;;;;;0.43;0.43;;;;;;;26.78;28.95;94424.63;4952649;28;20042;-42
2020/12/12 01:59:29;;;;;;;2.45;0.40;;;;;;;26.79;28.96;94430.69;4949855;28;20043;-40
2020/12/12 02:01:56;;;;;;;0.85;0.40;;;;;;;26.79;28.95;94434.16;4943919;28;20287;-40
2020/12/12 02:04:22;;;;;;;0.88;0.50;;;;;;;26.80;28.97;94427.91;4952919;28;20034;-41
2020/12/12 02:06:47;;;;;;;0.30;0.30;;;;;;;26.80;28.99;94425.28;4918712;28;20047;-40
2020/12/12 02:09:13;;;;;;;0.68;0.47;;;;;;;26.79;28.95;94425.44;4962415;28;20046;-40
2020/12/12 02:11:39;;;;;;;0.40;0.32;;;;;;;26.75;28.91;94422.28;4951153;28;20074;-40
2020/12/12 02:14:07;;;;;;;0.68;0.57;;;;;;;26.73;28.89;94421.56;4967370;28;20131;-42
2020/12/12 02:16:43;;;;;;;0.57;0.45;;;;;;;26.73;28.95;94422.41;4962050;28;20069;-41
2020/12/12 02:19:14;;;;;;;0.40;0.40;;;;;;;26.73;29.10;94419.78;4951980;28;21288;-42
2020/12/12 02:21:40;;;;;;;0.40;0.40;;;;;;;26.75;28.99;94419.63;4947119;28;20050;-40
2020/12/12 02:24:06;;;;;;;0.65;0.40;;;;;;;26.78;29.00;94414.09;4947451;28;20038;-41
2020/12/12 02:26:31;;;;;;;1.90;0.35;;;;;;;26.78;28.87;94419.34;4951659;28;20669;-38
2020/12/12 02:28:57;;;;;;;0.55;0.40;;;;;;;26.77;28.90;94414.25;4952905;28;20038;-39
2020/12/12 02:31:26;;;;;;;0.65;0.50;;;;;;;26.75;29.01;94417.00;4948976;28;20039;-40
2020/12/12 02:33:51;;;;;;;0.88;0.50;;;;;;;26.76;28.90;94416.03;4948063;28;20053;-41
2020/12/12 02:36:17;;;;;;;0.55;0.40;;;;;;;26.75;28.91;94419.63;4953246;28;20043;-38
2020/12/12 02:38:43;;;;;;;1.15;0.60;;;;;;;26.76;28.82;94418.66;4950396;28;20185;-43
2020/12/12 02:41:09;;;;;;;0.77;0.50;;;;;;;26.77;28.70;94422.94;4950606;28;20507;-38
2020/12/12 02:43:34;;;;;;;0.88;0.55;;;;;;;26.76;28.89;94416.03;4950402;28;20499;-37
2020/12/12 02:46:00;;;;;;;0.60;0.40;;;;;;;26.77;28.85;94412.44;4947051;28;20058;-40
2020/12/12 02:48:25;;;;;;;0.60;0.40;;;;;;;26.78;28.91;94418.53;4943195;28;20042;-39
2020/12/12 02:50:51;;;;;;;0.55;0.30;;;;;;;26.76;28.90;94413.41;4947413;28;20049;-38
2020/12/12 02:53:17;;;;;;;0.95;0.40;;;;;;;26.77;28.88;94412.44;4964346;28;20485;-39
2020/12/12 02:55:42;;;;;;;0.57;0.30;;;;;;;26.78;28.89;94414.09;4951767;28;20038;-36
2020/12/12 02:58:07;;;;;;;0.40;0.25;;;;;;;26.77;28.82;94412.44;4946711;28;20565;-41
2020/12/12 03:00:33;;;;;;;1.65;0.47;;;;;;;26.78;28.88;94416.72;4944482;28;20097;-38
2020/12/12 03:02:59;;;;;;;0.30;0.30;;;;;;;26.78;28.78;94416.72;4947415;28;20043;-39
2020/12/12 03:05:25;;;;;;;0.82;0.30;;;;;;;26.77;28.83;94409.81;4946347;28;20088;-42
2020/12/12 03:07:50;;;;;;;0.30;0.30;;;;;;;26.78;28.62;94411.47;4950814;28;20055;-36
2020/12/12 03:10:16;;;;;;;0.73;0.47;;;;;;;26.77;28.85;94419.50;4947501;28;20049;-41
2020/12/12 03:12:42;;;;;;;0.50;0.40;;;;;;;26.76;28.82;94426.53;4944383;28;20145;-43
2020/12/12 03:15:08;;;;;;;0.47;0.40;;;;;;;26.74;28.90;94423.25;4950356;28;20066;-36
2020/12/12 03:17:35;;;;;;;0.90;0.35;;;;;;;26.74;28.81;94424.06;4945880;28;20155;-41
2020/12/12 03:20:00;;;;;;;0.40;0.40;;;;;;;26.73;28.75;94421.56;4943953;28;20081;-37
2020/12/12 03:22:26;;;;;;;0.45;0.45;;;;;;;26.75;28.80;94419.63;4945714;28;20480;-41
2020/12/12 03:24:51;;;;;;;0.90;0.50;;;;;;;26.74;28.81;94421.44;4941254;28;20054;-40
2020/12/12 03:27:17;;;;;;;0.68;0.30;;;;;;;26.77;28.82;94422.13;4949871;28;20047;-38
2020/12/12 03:29:43;;;;;;;0.40;0.40;;;;;;;26.77;28.81;94422.94;4945608;28;20178;-40
2020/12/12 03:32:09;;;;;;;0.90;0.40;;;;;;;26.77;28.75;94428.19;4948490;28;20211;-41
2020/12/12 03:34:35;;;;;;;1.48;0.40;;;;;;;26.78;28.89;94429.88;4950831;28;20035;-40
2020/12/12 03:37:01;;;;;;;0.20;0.20;;;;;;;26.74;28.92;94423.25;4956239;28;20050;-43
2020/12/12 03:39:27;;;;;;;1.17;0.40;;;;;;;26.76;28.89;94431.78;4954494;28;20039;-41
2020/12/12 03:41:52;;;;;;;1.33;0.47;;;;;;;26.76;28.79;94434.44;4954911;28;20122;-40
2020/12/12 03:44:17;;;;;;;0.55;0.30;;;;;;;26.76;28.88;94428.38;4954153;28;20047;-39
2020/12/12 03:46:43;;;;;;;0.35;0.35;;;;;;;26.76;28.91;94431.78;4955313;28;20043;-38
2020/12/12 03:49:08;;;;;;;0.20;0.20;;;;;;;26.73;28.98;94426.81;4945273;28;20109;-39
2020/12/12 03:51:34;;;;;;;0.73;0.43;;;;;;;26.75;28.83;94424.91;4953387;28;20052;-40
2020/12/12 03:54:00;;;;;;;0.75;0.40;;;;;;;26.74;28.81;94424.06;4951577;28;20039;-39
2020/12/12 03:56:25;;;;;;;3.80;0.40;;;;;;;26.73;28.95;94432.09;4951727;28;20652;-36
2020/12/12 03:58:50;;;;;;;0.30;0.30;;;;;;;26.73;28.91;94427.66;4948287;28;20042;-39
2020/12/12 04:01:16;;;;;;;0.30;0.30;;;;;;;26.74;28.93;94439.00;4949723;28;20047;-39
2020/12/12 04:03:41;;;;;;;0.80;0.20;;;;;;;26.73;28.90;94437.34;4954976;28;20163;-39
2020/12/12 04:06:07;;;;;;;1.00;0.40;;;;;;;26.73;28.80;94434.72;4949612;28;20038;-38
2020/12/12 04:08:33;;;;;;;0.38;0.38;;;;;;;26.74;28.83;94433.75;4953358;28;20274;-39
2020/12/12 04:11:02;;;;;;;0.60;0.38;;;;;;;26.75;28.81;94430.16;4952209;28;20054;-38
2020/12/12 04:13:28;;;;;;;0.55;0.30;;;;;;;26.76;28.89;94437.06;4953264;28;20038;-40
2020/12/12 04:15:54;;;;;;;1.85;0.40;;;;;;;26.75;28.78;94432.78;4951722;28;20182;-41
2020/12/12 04:18:19;;;;;;;0.30;0.30;;;;;;;26.75;28.86;94435.41;4954959;28;20077;-39
2020/12/12 04:20:45;;;;;;;0.70;0.30;;;;;;;26.74;28.88;94433.75;4951803;28;20150;-37
2020/12/12 04:23:12;;;;;;;0.82;0.35;;;;;;;26.75;28.94;94435.41;4949931;28;20082;-39
2020/12/12 04:25:37;;;;;;;2.72;0.68;;;;;;;26.74;28.87;94433.75;4952849;28;20043;-42
2020/12/12 04:28:03;;;;;;;0.30;0.30;;;;;;;26.75;28.88;94432.78;4950341;28;20120;-35
2020/12/12 04:30:29;;;;;;;0.85;0.30;;;;;;;26.75;28.91;94440.66;4954956;28;20043;-40
2020/12/12 04:32:55;;;;;;;0.20;0.20;;;;;;;26.74;28.76;94439.00;4949923;28;20035;-35
2020/12/12 04:35:20;;;;;;;0.30;0.30;;;;;;;26.75;28.91;94435.41;4953358;28;20046;-35
2020/12/12 04:37:45;;;;;;;0.95;0.30;;;;;;;26.74;28.68;94436.38;4955104;28;20041;-41
2020/12/12 04:40:11;;;;;;;0.45;0.43;;;;;;;26.73;28.77;94437.34;4952067;28;20042;-37
2020/12/12 04:42:37;;;;;;;0.30;0.20;;;;;;;26.72;28.85;94440.94;4952221;28;20074;-43
2020/12/12 04:45:06;;;;;;;0.47;0.40;;;;;;;26.71;28.98;94440.13;4964196;28;22816;-38
2020/12/12 04:47:32;;;;;;;0.40;0.30;;;;;;;26.71;28.90;94439.28;4946242;28;20039;-42
2020/12/12 04:49:58;;;;;;;0.55;0.40;;;;;;;26.70;28.89;94440.28;4951741;28;20047;-40
2020/12/12 04:52:24;;;;;;;0.28;0.28;;;;;;;26.69;28.84;94441.25;4948171;28;20405;-38
2020/12/12 04:54:50;;;;;;;0.22;0.22;;;;;;;26.69;28.91;94446.50;4953305;28;20448;-37
2020/12/12 04:57:15;;;;;;;0.30;0.20;;;;;;;26.67;29.00;94443.19;4948501;28;20047;-38
2020/12/12 04:59:41;;;;;;;0.30;0.20;;;;;;;26.67;28.86;94443.19;4968476;28;20550;-38
2020/12/12 05:02:08;;;;;;;0.40;0.40;;;;;;;26.67;28.73;94448.44;4949311;28;20505;-42
2020/12/12 05:04:34;;;;;;;0.38;0.32;;;;;;;26.67;28.85;94448.44;4952341;28;22065;-38
2020/12/12 05:07:00;;;;;;;0.40;0.40;;;;;;;26.67;28.93;94440.56;4955893;28;20042;-35
2020/12/12 05:09:27;;;;;;;0.40;0.30;;;;;;;26.66;28.96;94442.34;4953922;28;20042;-39
2020/12/12 05:11:52;;;;;;;0.30;0.28;;;;;;;26.66;28.91;94447.59;4948152;28;20073;-41
2020/12/12 05:14:18;;;;;;;0.40;0.40;;;;;;;26.66;28.99;94449.41;4948887;28;22515;-42
2020/12/12 05:16:46;;;;;;;0.22;0.20;;;;;;;26.63;28.90;94450.53;4945532;28;20463;-36
2020/12/12 05:19:13;;;;;;;0.30;0.28;;;;;;;26.64;28.92;94448.72;4951261;28;20047;-38
2020/12/12 05:21:46;;;;;;;0.20;0.20;;;;;;;26.65;28.88;94442.50;4951443;28;20078;-40
2020/12/12 05:24:11;;;;;;;0.38;0.38;;;;;;;26.65;28.87;94445.13;4946938;28;20129;-37
2020/12/12 05:26:37;;;;;;;0.50;0.30;;;;;;;26.64;28.85;94452.19;4955411;28;20038;-41
2020/12/12 05:29:04;;;;;;;0.35;0.30;;;;;;;26.64;28.94;94448.72;4950967;28;20126;-36
2020/12/12 05:31:29;;;;;;;0.60;0.30;;;;;;;26.66;28.88;94449.41;4943216;28;20039;-42
2020/12/12 05:33:55;;;;;;;0.63;0.30;;;;;;;26.65;28.86;94455.66;4965797;28;20116;-40
2020/12/12 05:36:27;;;;;;;0.20;0.20;;;;;;;26.64;28.96;94459.22;4950166;28;20113;-40
2020/12/12 05:39:00;;;;;;;0.40;0.40;;;;;;;26.63;28.96;94457.56;4953050;28;20899;-42
2020/12/12 05:41:26;;;;;;;0.98;0.28;;;;;;;26.60;28.90;94454.28;4952248;28;20050;-38
2020/12/12 05:43:52;;;;;;;0.20;0.20;;;;;;;26.62;29.04;94456.75;4950050;28;20069;-41
2020/12/12 05:46:17;;;;;;;0.20;0.20;;;;;;;26.62;28.88;94462.00;4948349;28;20107;-39
2020/12/12 05:48:43;;;;;;;0.45;0.20;;;;;;;26.63;28.87;94460.19;4932945;28;20647;-40
2020/12/12 05:51:08;;;;;;;0.55;0.28;;;;;;;26.63;28.88;94457.56;4947481;28;20787;-41
2020/12/12 05:53:34;;;;;;;2.63;0.30;;;;;;;26.63;28.85;94462.81;4962695;28;20038;-41
2020/12/12 05:55:59;;;;;;;0.32;0.25;;;;;;;26.64;28.79;94464.47;4944487;28;20064;-36
2020/12/12 05:58:25;;;;;;;0.40;0.30;;;;;;;26.64;29.05;94459.22;4953107;28;20042;-37
2020/12/12 06:00:51;;;;;;;0.20;0.20;;;;;;;26.63;28.97;94458.41;4948419;28;20039;-41
2020/12/12 06:03:29;;;;;;;0.50;0.20;;;;;;;26.65;28.76;94466.16;4960762;28;20582;-37
2020/12/12 06:06:00;;;;;;;0.30;0.20;;;;;;;26.64;28.90;94460.06;4950783;28;20039;-37
2020/12/12 06:08:37;;;;;;;0.50;0.28;;;;;;;26.63;28.94;94457.56;4951165;28;20053;-43
2020/12/12 06:11:07;;;;;;;0.28;0.20;;;;;;;26.64;28.86;94469.72;4963822;28;20038;-36
2020/12/12 06:13:36;;;;;;;0.28;0.20;;;;;;;26.62;28.96;94469.91;4955051;28;20505;-36
2020/12/12 06:16:03;;;;;;;0.20;0.20;;;;;;;26.61;28.92;94471.69;4947289;28;20662;-36
2020/12/12 06:18:43;;;;;;;0.47;0.25;;;;;;;26.63;28.76;94478.59;4952038;28;20125;-37
2020/12/12 06:21:09;;;;;;;1.80;0.70;;;;;;;26.63;28.71;94478.59;4960185;28;20830;-48
2020/12/12 06:24:06;;;;;;;2.95;0.47;;;;;;;26.61;28.85;94473.47;4946220;28;20058;-38
2020/12/12 06:27:01;;;;;;;0.75;0.30;;;;;;;26.62;28.78;94485.66;4965202;28;20674;-40
2020/12/12 06:29:30;;;;;;;0.77;0.22;;;;;;;26.61;28.96;94484.81;4951489;28;20058;-36
2020/12/12 06:31:55;;;;;;;0.43;0.30;;;;;;;26.55;28.88;94472.22;4951160;28;20043;-41
2020/12/12 06:34:43;;;;;;;0.30;0.20;;;;;;;26.60;28.96;94488.41;4966106;28;20556;-39
2020/12/12 06:37:34;;;;;;;1.58;0.20;;;;;;;26.61;28.94;94487.44;4954403;28;20038;-39
2020/12/12 06:40:01;;;;;;;0.30;0.30;;;;;;;26.61;28.94;94490.06;4945443;28;20049;-39
2020/12/12 06:42:28;;;;;;;0.70;0.30;;;;;;;26.61;28.73;94494.47;4949660;28;20512;-41
2020/12/12 06:44:53;;;;;;;0.20;0.20;;;;;;;26.63;28.88;94495.19;4948672;28;20066;-41
2020/12/12 06:47:23;;;;;;;0.20;0.20;;;;;;;26.64;28.99;94498.63;4946666;28;20047;-40
2020/12/12 06:50:07;;;;;;;1.08;0.28;;;;;;;26.63;28.89;94500.44;4959907;28;20079;-36
2020/12/12 06:52:32;;;;;;;0.20;0.20;;;;;;;26.63;28.85;94510.09;4952962;28;20043;-41
2020/12/12 06:55:08;;;;;;;0.55;0.40;;;;;;;26.63;28.77;94504.84;4953988;28;20041;-40
2020/12/12 06:57:41;;;;;;;0.25;0.25;;;;;;;26.61;28.86;94508.47;4946911;28;20058;-37
2020/12/12 07:00:08;;;;;;;0.68;0.30;;;;;;;26.61;28.84;94505.84;4948834;28;20389;-38
2020/12/12 07:02:34;;;;;;;0.20;0.20;;;;;;;26.63;28.90;94510.09;4947240;28;20065;-39
2020/12/12 07:05:19;;;;;;;0.30;0.30;;;;;;;26.64;28.75;94511.75;4963601;28;20039;-37
2020/12/12 07:07:44;;;;;;;0.30;0.30;;;;;;;26.64;28.89;94509.13;4951889;28;20046;-39
2020/12/12 07:10:10;;;;;;;0.30;0.30;;;;;;;26.63;28.77;94515.34;4944618;28;20043;-37
2020/12/12 07:12:36;;;;;;;1.30;0.35;;;;;;;26.63;28.82;94525.88;4951391;28;20093;-40
2020/12/12 07:15:03;;;;;;;0.80;0.20;;;;;;;26.63;28.88;94531.97;4948298;28;20408;-42
2020/12/12 07:17:28;;;;;;;0.32;0.32;;;;;;;26.63;28.77;94533.75;4945724;28;20529;-40
2020/12/12 07:19:54;;;;;;;0.25;0.20;;;;;;;26.63;28.86;94537.22;4950352;28;20153;-36
2020/12/12 07:22:19;;;;;;;0.22;0.10;;;;;;;26.63;28.71;94536.38;4926966;28;20545;-41
2020/12/12 07:24:44;;;;;;;0.40;0.22;;;;;;;26.63;28.84;94539.00;4945804;28;20500;-38
2020/12/12 07:27:10;;;;;;;0.73;0.32;;;;;;;26.61;28.92;94545.22;4949633;28;20054;-36
2020/12/12 07:29:35;;;;;;;11.25;0.60;;;;;;;26.61;28.89;94539.97;4946963;28;20047;-40
2020/12/12 07:32:01;;;;;;;0.80;0.50;;;;;;;26.50;28.79;94527.00;4948603;28;20492;-42
2020/12/12 07:34:27;;;;;;;14.27;0.70;;;;;;;26.63;28.78;94546.88;4953285;28;20051;-38
2020/12/12 07:37:02;;;;;;;5.70;0.70;;;;;;;26.61;28.77;94555.75;4948429;28;20100;-36
2020/12/12 07:39:33;;;;;;;1.48;1.33;;;;;;;26.61;28.32;94560.16;4947869;28;20066;-35
2020/12/12 07:41:59;;;;;;;10.55;0.65;;;;;;;26.59;28.70;94556.84;4949652;28;20426;-37
2020/12/12 07:44:27;;;;;;;3.85;0.55;;;;;;;26.59;28.72;94568.16;4952194;28;20047;-39
2020/12/12 07:47:03;;;;;;;3.50;0.73;;;;;;;26.58;28.61;94574.41;4952417;28;20039;-36
2020/12/12 07:49:30;;;;;;;1.48;0.70;;;;;;;26.59;28.72;94577.88;4947593;28;20129;-38
2020/12/12 07:52:03;;;;;;;0.93;0.47;;;;;;;26.60;28.93;94577.72;4949689;28;20039;-38
2020/12/12 07:54:37;;;;;;;4.45;0.60;;;;;;;26.60;28.97;94576.88;4951941;28;20031;-42
2020/12/12 07:57:03;;;;;;;0.98;0.50;;;;;;;26.60;29.02;94579.53;4950337;28;20121;-37
2020/12/12 07:59:30;;;;;;;3.63;0.40;;;;;;;26.60;28.98;94585.63;4949120;28;20038;-40
2020/12/12 08:02:00;;;;;;;0.80;0.40;;;;;;;26.60;29.07;94590.03;4946687;28;20129;-40
2020/12/12 08:04:25;;;;;;;0.50;0.40;;;;;;;26.60;29.21;94593.50;4948121;28;20046;-39
2020/12/12 08:06:50;;;;;;;3.40;0.82;;;;;;;26.58;28.82;94587.53;4948444;28;20043;-37
2020/12/12 08:09:19;;;;;;;1.10;0.50;;;;;;;26.49;29.08;94572.63;4949148;28;20055;-38
2020/12/12 08:11:45;;;;;;;0.60;0.30;;;;;;;26.59;29.19;94596.25;4947098;28;20684;-39
2020/12/12 08:14:11;;;;;;;1.92;0.47;;;;;;;26.59;29.13;94597.06;4946995;28;20050;-39
2020/12/12 08:16:46;;;;;;;0.60;0.30;;;;;;;26.60;29.11;94601.38;4950446;28;20035;-35
2020/12/12 08:19:12;;;;;;;0.68;0.40;;;;;;;26.61;29.29;94607.44;4965020;28;20022;-38
2020/12/12 08:21:38;;;;;;;0.20;0.20;;;;;;;26.60;29.39;94606.63;4950534;28;20051;-42
2020/12/12 08:24:05;;;;;;;0.98;0.45;;;;;;;26.60;29.39;94611.88;4950831;28;20038;-36
2020/12/12 08:26:31;;;;;;;0.80;0.40;;;;;;;26.61;29.28;94610.91;4949710;28;20061;-43
2020/12/12 08:29:00;;;;;;;2.78;0.40;;;;;;;26.62;29.28;94611.75;4954360;28;20070;-39
2020/12/12 08:31:26;;;;;;;2.45;0.60;;;;;;;26.61;29.27;94610.06;4952974;28;20039;-40
2020/12/12 08:33:55;;;;;;;1.60;0.68;;;;;;;26.51;29.28;94598.75;4952937;28;20055;-36
2020/12/12 08:36:28;;;;;;;1.33;0.50;;;;;;;26.63;29.32;94623.91;4953528;28;20046;-41
2020/12/12 08:38:54;;;;;;;1.30;0.60;;;;;;;26.63;29.55;94625.69;4952715;28;20510;-38
2020/12/12 08:41:20;;;;;;;1.60;0.50;;;;;;;26.63;29.46;94630.94;4953690;28;20042;-40
2020/12/12 08:43:46;;;;;;;0.60;0.50;;;;;;;26.61;29.75;94634.53;4954696;28;20057;-36
2020/12/12 08:46:15;;;;;;;1.10;0.32;;;;;;;26.60;29.57;94638.16;4948726;28;20047;-39
2020/12/12 08:48:40;;;;;;;1.92;0.40;;;;;;;26.60;29.79;94648.66;4947110;28;20066;-40
2020/12/12 08:51:07;;;;;;;4.43;0.43;;;;;;;26.61;29.76;94649.47;4952352;28;20552;-38
2020/12/12 08:53:42;;;;;;;3.30;0.30;;;;;;;26.63;29.68;94646.72;4953860;28;20093;-40
2020/12/12 08:56:08;;;;;;;1.02;0.32;;;;;;;26.63;29.67;94649.34;4968305;28;20070;-40
2020/12/12 08:58:39;;;;;;;0.35;0.25;;;;;;;26.64;29.59;94657.06;4952828;28;20038;-36
2020/12/12 09:01:29;;;;;;;1.25;0.40;;;;;;;26.65;29.64;94665.81;4952521;28;20452;-39
2020/12/12 09:04:10;;;;;;;1.15;0.52;;;;;;;26.65;29.77;94665.81;4953274;28;20042;-35
2020/12/12 09:06:44;;;;;;;0.77;0.50;;;;;;;26.66;29.72;94667.47;4952185;28;20037;-37
2020/12/12 09:09:19;;;;;;;2.58;0.90;;;;;;;26.67;29.48;94674.34;4952785;28;20118;-35
2020/12/12 09:12:03;;;;;;;1.42;0.82;;;;;;;26.67;29.50;94682.25;4951548;28;20047;-40
2020/12/12 09:14:33;;;;;;;0.95;0.40;;;;;;;26.66;29.75;94684.03;4952019;28;20038;-39
2020/12/12 09:17:09;;;;;;;0.47;0.40;;;;;;;26.69;29.60;94685.56;4952744;28;20577;-40
2020/12/12 09:19:35;;;;;;;0.20;0.20;;;;;;;26.69;29.71;94689.00;4953142;28;20138;-41
2020/12/12 09:22:00;;;;;;;2.35;0.50;;;;;;;26.70;29.67;94695.09;4953330;28;20141;-37
2020/12/12 09:24:28;;;;;;;1.63;0.57;;;;;;;26.70;29.64;94700.38;4951504;28;20047;-39
2020/12/12 09:26:55;;;;;;;5.07;2.80;;;;;;;26.63;23.79;94701.88;4956527;28;20042;-40
2020/12/12 09:29:20;;;;;;;4.10;3.10;;;;;;;26.23;22.13;94699.16;4954156;28;20039;-39
2020/12/12 09:31:48;;;;;;;3.95;3.30;;;;;;;25.62;21.86;94687.81;4951662;28;20042;-40
2020/12/12 09:34:14;;;;;;;4.47;3.38;;;;;;;25.18;22.28;94701.91;4956703;28;20096;-38
2020/12/12 09:36:39;;;;;;;4.95;3.00;;;;;;;24.82;22.91;94714.47;4950960;28;20070;-39
2020/12/12 09:39:05;;;;;;;3.30;2.47;;;;;;;24.72;24.39;94717.84;4952181;28;20054;-39
2020/12/12 09:41:30;;;;;;;4.47;2.30;;;;;;;24.74;25.53;94713.28;4950390;28;20716;-36
2020/12/12 09:43:56;;;;;;;3.78;2.20;;;;;;;24.80;26.18;94722.44;4951612;28;20043;-37
2020/12/12 09:46:22;;;;;;;6.00;2.35;;;;;;;24.87;26.60;94728.84;4944789;28;20038;-40
2020/12/12 09:48:47;;;;;;;1.67;1.45;;;;;;;24.93;26.62;94724.91;4947764;28;20057;-41
2020/12/12 09:51:14;;;;;;;1.92;1.40;;;;;;;25.01;27.09;94727.72;4950434;28;20053;-38
2020/12/12 09:53:40;;;;;;;1.92;1.38;;;;;;;25.11;27.09;94724.34;4950306;28;20042;-40
2020/12/12 09:56:06;;;;;;;2.03;1.42;;;;;;;25.18;27.35;94733.38;4955935;28;20034;-38
2020/12/12 09:58:32;;;;;;;6.43;1.33;;;;;;;25.22;27.41;94732.16;4955591;28;20784;-39
2020/12/12 10:00:58;;;;;;;6.68;1.80;;;;;;;25.26;27.55;94735.34;4950852;28;20047;-36
2020/12/12 10:03:24;;;;;;;1.95;1.50;;;;;;;25.34;27.70;94739.94;4953560;28;20047;-44
2020/12/12 10:05:50;;;;;;;4.03;1.38;;;;;;;25.40;27.56;94735.00;4968636;28;20316;-39
2020/12/12 10:08:15;;;;;;;5.18;1.77;;;;;;;25.42;27.79;94734.88;4952155;28;20045;-39
2020/12/12 10:10:41;;;;;;;11.65;3.88;;;;;;;25.45;27.90;94735.44;4964351;28;20142;-39
2020/12/12 10:13:07;;;;;;;35.55;7.10;;;;;;;25.53;28.01;94741.84;4951775;28;20049;-37
2020/12/12 10:15:33;;;;;;;31.25;7.57;;;;;;;25.60;28.11;94745.66;4945401;28;20043;-39
2020/12/12 10:17:59;;;;;;;33.53;6.00;;;;;;;25.67;28.12;94746.78;4957491;28;20061;-37
2020/12/12 10:20:24;;;;;;;23.40;5.72;;;;;;;25.74;28.01;94741.81;4961370;28;20548;-38
2020/12/12 10:22:50;;;;;;;21.98;6.25;;;;;;;25.79;27.94;94750.16;4958841;28;20140;-37
2020/12/12 10:25:15;;;;;;;19.83;4.97;;;;;;;25.83;28.14;94742.84;4958965;28;20094;-37
2020/12/12 10:27:41;;;;;;;19.02;4.72;;;;;;;25.82;28.03;94744.63;4973883;28;20109;-38
2020/12/12 10:30:10;;;;;;;16.42;4.68;;;;;;;25.92;28.06;94749.09;4976531;28;20112;-36
2020/12/12 10:32:36;;;;;;;22.80;4.93;;;;;;;25.94;28.04;94752.41;4950791;28;20039;-40
2020/12/12 10:35:05;;;;;;;17.80;4.65;;;;;;;25.96;28.04;94745.22;4959841;28;20034;-37
2020/12/12 10:37:31;;;;;;;13.77;4.32;;;;;;;26.01;27.98;94757.97;4976618;28;20042;-38
2020/12/12 10:42:34;;;;;;;17.92;4.53;;;;;;;26.06;27.96;94756.63;4961117;28;20054;-40
2020/12/12 10:44:59;;;;;;;15.45;3.97;;;;;;;26.09;28.03;94761.59;4956341;28;20049;-36
2020/12/12 10:47:25;;;;;;;14.23;4.43;;;;;;;26.12;27.88;94759.66;4954298;28;20027;-39
2020/12/12 10:49:51;;;;;;;13.60;3.90;;;;;;;26.14;27.88;94762.97;4959391;28;20046;-42
2020/12/12 10:52:16;;;;;;;23.35;4.22;;;;;;;26.15;28.04;94759.38;4959155;28;20109;-39
2020/12/12 10:54:47;;;;;;;16.83;3.75;;;;;;;26.18;28.18;94756.50;4954346;28;20492;-39
2020/12/12 10:57:12;;;;;;;13.32;3.75;;;;;;;26.18;27.97;94765.22;4964115;28;20053;-40
2020/12/12 10:59:42;;;;;;;12.60;4.00;;;;;;;26.21;27.96;94764.94;4958742;28;20500;-41
2020/12/12 11:02:11;;;;;;;13.82;3.60;;;;;;;26.21;28.05;94769.38;4954842;28;20571;-39
2020/12/12 11:04:37;;;;;;;14.02;3.85;;;;;;;26.25;28.14;94776.00;4956683;28;20085;-41
2020/12/12 11:07:04;;;;;;;14.15;3.65;;;;;;;26.26;28.04;94776.84;4955265;28;20054;-38
2020/12/12 11:09:30;;;;;;;12.55;3.50;;;;;;;26.26;28.10;94777.69;4966067;28;20038;-34
2020/12/12 11:11:56;;;;;;;11.60;3.53;;;;;;;26.27;28.11;94774.09;4963289;28;20043;-38
2020/12/12 11:14:21;;;;;;;14.30;4.10;;;;;;;26.30;28.13;94779.09;4956350;28;20045;-39
2020/12/12 11:16:47;;;;;;;10.98;3.50;;;;;;;26.31;28.22;94780.75;4963521;28;20046;-40
2020/12/12 11:19:13;;;;;;;12.38;2.90;;;;;;;26.31;28.20;94774.69;4956195;28;20075;-41
2020/12/12 11:21:40;;;;;;;13.35;3.08;;;;;;;26.33;28.02;94778.00;4959107;28;20042;-36
2020/12/12 11:24:07;;;;;;;12.45;3.58;;;;;;;26.34;28.32;94779.66;4959324;28;20059;-37
2020/12/12 11:26:32;;;;;;;11.45;2.92;;;;;;;26.30;28.09;94773.84;4963704;28;20031;-36
2020/12/12 11:28:57;;;;;;;11.60;3.15;;;;;;;26.34;28.10;94779.66;4963945;28;20564;-39
2020/12/12 11:31:24;;;;;;;10.88;2.95;;;;;;;26.34;28.12;94775.25;4956618;28;20023;-40
2020/12/12 11:34:05;;;;;;;11.00;2.90;;;;;;;26.37;28.16;94781.19;4959990;28;20042;-42